createdAt,value
2022-10-05T00:01:35.291Z,8.02
2022-10-05T00:04:18.760Z,8.06
2022-10-05T00:06:59.392Z,8.10
2022-10-05T00:09:33.146Z,8.10
2022-10-05T00:12:16.014Z,8.10
2022-10-05T00:14:51.002Z,8.10
2022-10-05T00:17:27.163Z,8.10
2022-10-05T00:20:00.257Z,8.10
2022-10-05T00:22:36.399Z,8.10
2022-10-05T00:25:19.374Z,8.10
2022-10-05T00:27:57.992Z,8.10
2022-10-05T00:30:35.286Z,8.10
2022-10-05T00:33:08.556Z,8.10
2022-10-05T00:35:41.887Z,8.10
2022-10-05T00:38:15.015Z,8.10
2022-10-05T00:41:02.133Z,8.10
2022-10-05T00:44:04.616Z,8.10
2022-10-05T00:46:50.971Z,8.10
2022-10-05T00:49:41.513Z,8.10
2022-10-05T00:52:22.291Z,8.10
2022-10-05T00:55:09.703Z,8.10
2022-10-05T00:57:53.567Z,8.10
2022-10-05T01:00:29.345Z,8.10
2022-10-05T01:03:11.138Z,8.04
2022-10-05T01:06:01.587Z,8.00
2022-10-05T01:08:48.917Z,8.00
2022-10-05T01:11:28.454Z,8.00
2022-10-05T01:14:10.110Z,8.00
2022-10-05T01:16:52.481Z,8.00
2022-10-05T01:19:56.031Z,8.00
2022-10-05T01:22:49.469Z,8.00
2022-10-05T01:25:32.032Z,8.00
2022-10-05T01:28:11.934Z,8.06
2022-10-05T01:30:49.471Z,8.08
2022-10-05T01:33:31.980Z,8.10
2022-10-05T01:36:16.123Z,8.10
2022-10-05T01:38:56.704Z,8.10
2022-10-05T01:41:34.743Z,8.10
2022-10-05T01:44:13.321Z,8.16
2022-10-05T01:46:53.305Z,8.20
2022-10-05T01:49:45.457Z,8.20
2022-10-05T01:52:35.699Z,8.20
2022-10-05T01:55:23.667Z,8.20
2022-10-05T01:58:10.161Z,8.20
2022-10-05T02:00:52.251Z,8.20
2022-10-05T02:03:32.335Z,8.20
2022-10-05T02:06:11.663Z,8.20
2022-10-05T02:08:54.319Z,8.20
2022-10-05T02:11:27.478Z,8.10
2022-10-05T02:14:08.926Z,8.10
2022-10-05T02:16:45.161Z,8.10
2022-10-05T02:19:23.523Z,8.00
2022-10-05T02:22:04.777Z,8.00
2022-10-05T02:24:46.166Z,7.90
2022-10-05T02:27:26.126Z,7.90
2022-10-05T02:30:03.705Z,7.90
2022-10-05T02:32:44.992Z,7.90
2022-10-05T02:35:21.307Z,7.90
2022-10-05T02:38:08.911Z,7.90
2022-10-05T02:40:56.206Z,7.90
2022-10-05T02:43:43.326Z,7.90
2022-10-05T02:46:32.603Z,7.90
2022-10-05T02:49:20.994Z,7.92
2022-10-05T02:52:05.702Z,8.00
2022-10-05T02:54:51.301Z,8.00
2022-10-05T02:57:30.314Z,8.00
2022-10-05T03:00:11.262Z,8.10
2022-10-05T03:02:50.416Z,8.10
2022-10-05T03:05:32.278Z,8.10
2022-10-05T03:08:10.937Z,8.12
2022-10-05T03:10:56.153Z,8.20
2022-10-05T03:13:40.787Z,8.18
2022-10-05T03:16:32.639Z,8.10
2022-10-05T03:19:23.958Z,8.10
2022-10-05T03:22:15.710Z,8.10
2022-10-05T03:25:09.400Z,8.00
2022-10-05T03:27:51.623Z,8.00
2022-10-05T03:30:27.783Z,7.96
2022-10-05T03:33:11.924Z,7.92
2022-10-05T03:35:58.224Z,8.00
2022-10-05T03:38:41.043Z,8.00
2022-10-05T03:41:24.658Z,8.00
2022-10-05T03:44:24.108Z,8.00
2022-10-05T03:47:13.854Z,8.10
2022-10-05T03:50:07.343Z,8.10
2022-10-05T03:52:46.989Z,8.10
2022-10-05T03:55:27.704Z,8.12
2022-10-05T03:58:04.930Z,8.18
2022-10-05T04:00:40.524Z,8.20
2022-10-05T04:03:21.868Z,8.20
2022-10-05T04:05:59.547Z,8.20
2022-10-05T04:08:39.126Z,8.20
2022-10-05T04:11:18.440Z,8.26
2022-10-05T04:13:57.770Z,8.30
2022-10-05T04:16:36.449Z,8.30
2022-10-05T04:19:20.641Z,8.24
2022-10-05T04:21:58.955Z,8.20
2022-10-05T04:24:38.447Z,8.20
2022-10-05T04:27:18.160Z,8.20
2022-10-05T04:29:59.790Z,8.20
2022-10-05T04:32:43.338Z,8.20
2022-10-05T04:35:41.952Z,8.20
2022-10-05T04:38:36.408Z,8.20
2022-10-05T04:41:23.356Z,8.28
2022-10-05T04:44:12.728Z,8.30
2022-10-05T04:47:04.203Z,8.30
2022-10-05T04:49:53.128Z,8.40
2022-10-05T04:52:33.492Z,8.40
2022-10-05T04:55:20.333Z,8.40
2022-10-05T04:58:02.587Z,8.40
2022-10-05T05:00:50.694Z,8.40
2022-10-05T05:04:02.897Z,8.44
2022-10-05T05:06:45.148Z,8.46
2022-10-05T05:10:04.613Z,8.44
2022-10-05T05:12:50.373Z,8.40
2022-10-05T05:15:46.824Z,8.46
2022-10-05T05:18:53.442Z,8.50
2022-10-05T05:21:40.633Z,8.50
2022-10-05T05:24:25.293Z,8.50
2022-10-05T05:27:41.006Z,8.60
2022-10-05T05:30:23.756Z,8.62
2022-10-05T05:33:16.592Z,8.70
2022-10-05T05:36:23.564Z,8.70
2022-10-05T05:39:16.202Z,8.80
2022-10-05T05:42:00.190Z,8.90
2022-10-05T05:44:39.043Z,8.92
2022-10-05T05:47:22.132Z,9.00
2022-10-05T05:50:14.271Z,9.00
2022-10-05T05:52:53.233Z,9.06
2022-10-05T05:55:32.878Z,9.10
2022-10-05T05:58:15.330Z,9.10
2022-10-05T06:00:54.109Z,9.20
2022-10-05T06:03:36.794Z,9.26
2022-10-05T06:06:14.972Z,9.30
2022-10-05T06:08:51.640Z,9.40
2022-10-05T06:11:53.574Z,9.60
2022-10-05T06:14:34.545Z,9.80
2022-10-05T06:17:15.384Z,10.00
2022-10-05T06:19:50.164Z,10.20
2022-10-05T06:22:29.690Z,10.46
2022-10-05T06:25:22.743Z,10.70
2022-10-05T06:28:12.625Z,11.00
2022-10-05T06:31:13.903Z,11.30
2022-10-05T06:33:55.808Z,11.50
2022-10-05T06:36:45.637Z,11.60
2022-10-05T06:39:44.063Z,11.70
2022-10-05T06:42:48.359Z,11.80
2022-10-05T06:46:02.242Z,12.00
2022-10-05T06:49:17.386Z,12.10
2022-10-05T06:52:09.618Z,12.20
2022-10-05T06:55:04.627Z,12.30
2022-10-05T06:58:08.226Z,12.50
2022-10-05T07:00:51.719Z,12.74
2022-10-05T07:03:37.449Z,13.00
2022-10-05T07:06:19.900Z,13.20
2022-10-05T07:09:22.572Z,13.40
2022-10-05T07:12:18.078Z,13.40
2022-10-05T07:15:11.835Z,13.50
2022-10-05T07:17:56.118Z,13.50
2022-10-05T07:20:34.830Z,13.50
2022-10-05T07:23:25.604Z,13.60
2022-10-05T07:26:07.588Z,13.70
2022-10-05T07:28:49.021Z,13.80
2022-10-05T07:31:34.880Z,13.90
2022-10-05T07:34:13.814Z,14.00
2022-10-05T07:37:14.436Z,14.10
2022-10-05T07:40:00.905Z,14.20
2022-10-05T07:42:56.672Z,14.30
2022-10-05T07:45:42.429Z,14.40
2022-10-05T07:48:23.306Z,14.60
2022-10-05T07:51:07.809Z,14.80
2022-10-05T07:53:46.834Z,15.02
2022-10-05T07:56:30.906Z,15.26
2022-10-05T07:59:12.444Z,15.40
2022-10-05T08:01:49.773Z,15.50
2022-10-05T08:04:28.974Z,15.72
2022-10-05T08:07:06.769Z,16.04
2022-10-05T08:09:46.553Z,16.40
2022-10-05T08:12:45.302Z,16.60
2022-10-05T08:15:21.976Z,16.70
2022-10-05T08:17:57.328Z,16.70
2022-10-05T08:20:41.668Z,16.80
2022-10-05T08:23:25.432Z,16.90
2022-10-05T08:26:17.880Z,16.90
2022-10-05T08:29:13.788Z,17.10
2022-10-05T08:31:51.307Z,17.50
2022-10-05T08:34:32.455Z,18.04
2022-10-05T08:37:10.045Z,18.64
2022-10-05T08:39:50.712Z,19.20
2022-10-05T08:43:03.634Z,19.70
2022-10-05T08:46:14.665Z,20.42
2022-10-05T08:49:37.684Z,21.06
2022-10-05T08:52:31.485Z,21.50
2022-10-05T08:55:39.933Z,21.60
2022-10-05T08:59:03.135Z,21.98
2022-10-05T09:01:57.539Z,22.60
2022-10-05T09:04:55.705Z,22.90
2022-10-05T09:08:13.232Z,22.80
2022-10-05T09:11:14.227Z,22.90
2022-10-05T09:14:30.063Z,23.16
2022-10-05T09:17:30.808Z,23.10
2022-10-05T09:20:24.580Z,22.90
2022-10-05T09:23:15.123Z,22.80
2022-10-05T09:26:09.491Z,22.80
2022-10-05T09:28:59.167Z,22.92
2022-10-05T09:31:59.574Z,23.04
2022-10-05T09:35:07.414Z,22.70
2022-10-05T09:38:20.465Z,22.48
2022-10-05T09:41:41.064Z,22.06
2022-10-05T09:45:07.646Z,21.80
2022-10-05T09:48:47.728Z,21.70
2022-10-05T09:51:56.742Z,21.64
2022-10-05T09:55:31.882Z,21.60
2022-10-05T09:58:59.041Z,21.50
2022-10-05T10:01:48.224Z,21.60
2022-10-05T10:04:48.558Z,21.70
2022-10-05T10:07:51.987Z,21.80
2022-10-05T10:10:55.748Z,21.90
2022-10-05T10:14:22.560Z,22.20
2022-10-05T10:17:21.216Z,22.70
2022-10-05T10:20:31.242Z,23.10
2022-10-05T10:23:36.998Z,23.68
2022-10-05T10:26:36.745Z,24.02
2022-10-05T10:29:47.270Z,24.62
2022-10-05T10:33:18.118Z,25.20
2022-10-05T10:36:02.905Z,25.86
2022-10-05T10:38:50.838Z,26.66
2022-10-05T10:42:03.744Z,27.30
2022-10-05T10:45:30.029Z,27.20
2022-10-05T10:48:12.403Z,27.30
2022-10-05T10:51:14.054Z,27.56
2022-10-05T10:54:35.086Z,28.10
2022-10-05T10:57:15.456Z,28.40
2022-10-05T11:00:40.229Z,28.70
2022-10-05T11:03:51.610Z,29.76
2022-10-05T11:06:58.495Z,30.50
2022-10-05T11:10:04.781Z,31.08
2022-10-05T11:13:35.621Z,31.66
2022-10-05T11:17:09.820Z,32.36
2022-10-05T11:20:36.944Z,33.10
2022-10-05T11:23:34.278Z,32.54
2022-10-05T11:26:41.325Z,32.34
2022-10-05T11:29:46.885Z,33.62
2022-10-05T11:33:19.569Z,33.42
2022-10-05T11:36:21.123Z,34.24
2022-10-05T11:39:37.245Z,35.44
2022-10-05T11:42:49.421Z,35.54
2022-10-05T11:45:36.377Z,35.20
2022-10-05T11:48:41.268Z,35.10
2022-10-05T11:52:00.326Z,34.78
2022-10-05T11:55:19.701Z,34.64
2022-10-05T11:57:59.253Z,34.70
2022-10-05T12:00:41.872Z,34.80
2022-10-05T12:03:38.986Z,35.20
2022-10-05T12:06:29.150Z,35.50
2022-10-05T12:09:20.118Z,36.38
2022-10-05T12:12:07.949Z,37.44
2022-10-05T12:14:56.614Z,37.70
2022-10-05T12:17:38.500Z,35.92
2022-10-05T12:20:21.438Z,34.22
2022-10-05T12:23:00.542Z,33.16
2022-10-05T12:25:39.502Z,32.52
2022-10-05T12:28:18.717Z,31.76
2022-10-05T12:31:25.981Z,31.00
2022-10-05T12:34:09.967Z,31.20
2022-10-05T12:37:04.989Z,31.44
2022-10-05T12:39:46.874Z,32.40
2022-10-05T12:42:31.583Z,32.74
2022-10-05T12:45:29.830Z,33.36
2022-10-05T12:48:23.969Z,34.76
2022-10-05T12:51:05.051Z,36.10
2022-10-05T12:53:50.402Z,36.88
2022-10-05T12:56:37.397Z,37.52
2022-10-05T12:59:21.636Z,37.66
2022-10-05T13:02:05.882Z,37.40
2022-10-05T13:04:49.410Z,37.82
2022-10-05T13:07:53.292Z,37.60
2022-10-05T13:10:40.649Z,37.66
2022-10-05T13:13:44.810Z,37.90
2022-10-05T13:16:29.506Z,36.70
2022-10-05T13:19:19.550Z,35.82
2022-10-05T13:22:11.004Z,35.84
2022-10-05T13:24:59.523Z,36.60
2022-10-05T13:27:35.512Z,37.30
2022-10-05T13:30:17.526Z,37.40
2022-10-05T13:32:57.695Z,37.40
2022-10-05T13:35:46.109Z,36.88
2022-10-05T13:38:31.171Z,34.78
2022-10-05T13:41:18.860Z,32.78
2022-10-05T13:44:05.236Z,31.12
2022-10-05T13:46:47.208Z,29.58
2022-10-05T13:49:33.878Z,28.50
2022-10-05T13:52:29.757Z,27.46
2022-10-05T13:55:15.666Z,26.52
2022-10-05T13:58:03.715Z,25.90
2022-10-05T14:00:48.066Z,25.38
2022-10-05T14:03:37.058Z,24.94
2022-10-05T14:06:30.175Z,24.70
2022-10-05T14:09:03.398Z,24.40
2022-10-05T14:11:40.419Z,24.30
2022-10-05T14:14:28.564Z,24.20
2022-10-05T14:19:51.436Z,23.90
2022-10-05T14:22:28.221Z,23.72
2022-10-05T14:25:19.915Z,23.50
2022-10-05T14:28:24.426Z,23.40
2022-10-05T14:31:03.629Z,23.24
2022-10-05T14:33:38.628Z,23.20
2022-10-05T14:36:33.260Z,23.10
2022-10-05T14:39:13.119Z,23.00
2022-10-05T14:41:51.912Z,22.80
2022-10-05T14:47:24.841Z,22.42
2022-10-05T14:50:17.966Z,22.30
2022-10-05T14:53:11.098Z,22.08
2022-10-05T14:55:58.213Z,21.90
2022-10-05T14:58:56.824Z,21.70
2022-10-05T15:01:32.228Z,21.46
2022-10-05T15:04:23.377Z,21.30
2022-10-05T15:07:07.325Z,21.18
2022-10-05T15:10:04.386Z,21.10
2022-10-05T15:12:44.025Z,21.00
2022-10-05T15:15:29.599Z,20.90
2022-10-05T15:18:09.044Z,20.90
2022-10-05T15:20:52.602Z,20.80
2022-10-05T15:23:39.588Z,20.80
2022-10-05T15:26:33.469Z,20.80
2022-10-05T15:29:19.087Z,20.80
2022-10-05T15:32:05.350Z,20.74
2022-10-05T15:34:53.056Z,20.70
2022-10-05T15:37:33.385Z,20.60
2022-10-05T15:40:08.032Z,20.50
2022-10-05T15:42:44.047Z,20.30
2022-10-05T15:45:24.103Z,20.20
2022-10-05T15:48:04.534Z,20.00
2022-10-05T15:50:45.815Z,19.80
2022-10-05T15:53:28.331Z,19.64
2022-10-05T15:56:05.308Z,19.50
2022-10-05T15:58:56.729Z,19.30
2022-10-05T16:01:47.429Z,19.14
2022-10-05T16:04:31.139Z,19.00
2022-10-05T16:07:26.196Z,18.80
2022-10-05T16:10:08.888Z,18.60
2022-10-05T16:12:54.879Z,18.50
2022-10-05T16:15:36.077Z,18.30
2022-10-05T16:18:47.342Z,18.18
2022-10-05T16:21:31.055Z,18.00
2022-10-05T16:24:20.792Z,17.88
2022-10-05T16:27:05.010Z,17.70
2022-10-05T16:29:52.876Z,17.60
2022-10-05T16:32:30.849Z,17.40
2022-10-05T16:35:22.166Z,17.30
2022-10-05T16:38:06.110Z,17.20
2022-10-05T16:40:48.011Z,17.10
2022-10-05T16:43:36.048Z,17.00
2022-10-05T16:46:22.349Z,16.86
2022-10-05T16:49:04.428Z,16.70
2022-10-05T16:51:50.766Z,16.70
2022-10-05T16:54:28.853Z,16.60
2022-10-05T16:57:08.316Z,16.50
2022-10-05T17:00:20.659Z,16.40
2022-10-05T17:03:11.416Z,16.30
2022-10-05T17:06:20.796Z,16.20
2022-10-05T17:09:17.285Z,16.10
2022-10-05T17:12:08.626Z,16.00
2022-10-05T17:14:58.900Z,15.98
2022-10-05T17:17:57.900Z,15.90
2022-10-05T17:20:46.339Z,15.80
2022-10-05T17:23:52.022Z,15.78
2022-10-05T17:26:59.509Z,15.70
2022-10-05T17:29:50.030Z,15.64
2022-10-05T17:32:58.365Z,15.60
2022-10-05T17:36:19.007Z,15.60
2022-10-05T17:38:53.137Z,15.50
2022-10-05T17:41:31.229Z,15.50
2022-10-05T17:44:27.898Z,15.40
2022-10-05T17:47:04.971Z,15.40
2022-10-05T17:50:18.491Z,15.30
2022-10-05T17:53:40.424Z,15.20
2022-10-05T17:56:13.413Z,15.16
2022-10-05T17:59:07.699Z,15.10
2022-10-05T18:01:42.307Z,15.02
2022-10-05T18:05:02.111Z,15.00
2022-10-05T18:07:36.290Z,14.90
2022-10-05T18:10:29.914Z,14.90
2022-10-05T18:13:38.208Z,14.80
2022-10-05T18:16:13.474Z,14.80
2022-10-05T18:19:00.518Z,14.76
2022-10-05T18:22:00.382Z,14.70
2022-10-05T18:24:56.346Z,14.60
2022-10-05T18:28:17.897Z,14.60
2022-10-05T18:31:16.995Z,14.50
2022-10-05T18:34:04.769Z,14.44
2022-10-05T18:37:09.409Z,14.40
2022-10-05T18:40:06.467Z,14.30
2022-10-05T18:42:46.639Z,14.22
2022-10-05T18:45:33.423Z,14.20
2022-10-05T18:48:19.560Z,14.12
2022-10-05T18:50:59.891Z,14.10
2022-10-05T18:53:43.761Z,14.00
2022-10-05T18:56:27.557Z,14.00
2022-10-05T18:59:20.300Z,13.90
2022-10-05T19:02:13.954Z,13.80
2022-10-05T19:05:04.375Z,13.78
2022-10-05T19:07:53.131Z,13.70
2022-10-05T19:10:35.745Z,13.60
2022-10-05T19:13:25.719Z,13.50
2022-10-05T19:16:15.292Z,13.42
2022-10-05T19:19:16.461Z,13.40
2022-10-05T19:21:59.882Z,13.30
2022-10-05T19:24:55.708Z,13.22
2022-10-05T19:27:41.019Z,13.20
2022-10-05T19:30:23.275Z,13.14
2022-10-05T19:33:22.792Z,13.10
2022-10-05T19:36:19.027Z,13.10
2022-10-05T19:39:08.364Z,13.02
2022-10-05T19:42:00.740Z,13.00
2022-10-05T19:44:54.306Z,13.00
2022-10-05T19:47:45.311Z,12.90
2022-10-05T19:50:29.054Z,12.90
2022-10-05T19:53:15.100Z,12.90
2022-10-05T19:56:22.676Z,12.90
2022-10-05T19:58:59.566Z,12.90
2022-10-05T20:01:35.569Z,12.98
2022-10-05T20:04:09.718Z,13.00
2022-10-05T20:06:43.089Z,13.00
2022-10-05T20:09:26.679Z,13.00
2022-10-05T20:12:01.043Z,13.00
2022-10-05T20:14:59.424Z,13.00
2022-10-05T20:17:50.238Z,13.00
2022-10-05T20:20:38.337Z,13.00
2022-10-05T20:23:30.713Z,13.00
2022-10-05T20:26:21.211Z,13.00
2022-10-05T20:28:52.756Z,12.92
2022-10-05T20:31:28.755Z,12.90
2022-10-05T20:34:04.609Z,12.90
2022-10-05T20:36:37.767Z,12.90
2022-10-05T20:39:10.652Z,12.90
2022-10-05T20:41:43.850Z,12.90
2022-10-05T20:44:17.082Z,12.80
2022-10-05T20:46:50.280Z,12.80
2022-10-05T20:49:25.779Z,12.80
2022-10-05T20:51:59.407Z,12.80
2022-10-05T20:54:32.838Z,12.80
2022-10-05T20:57:06.479Z,12.78
2022-10-05T20:59:40.255Z,12.70
2022-10-05T21:02:13.272Z,12.70
2022-10-05T21:04:47.947Z,12.60
2022-10-05T21:07:23.494Z,12.60
2022-10-05T21:09:56.460Z,12.60
2022-10-05T21:12:29.415Z,12.60
2022-10-05T21:15:04.965Z,12.60
2022-10-05T21:17:38.359Z,12.60
2022-10-05T21:20:13.115Z,12.60
2022-10-05T21:22:46.073Z,12.60
2022-10-05T21:25:22.852Z,12.60
2022-10-05T21:27:55.888Z,12.60
2022-10-05T21:30:29.031Z,12.60
2022-10-05T21:33:03.559Z,12.60
2022-10-05T21:35:36.951Z,12.60
2022-10-05T21:38:09.870Z,12.60
2022-10-05T21:40:45.687Z,12.50
2022-10-05T21:43:18.783Z,12.50
2022-10-05T21:45:52.158Z,12.40
2022-10-05T21:48:27.233Z,12.30
2022-10-05T21:51:00.969Z,12.20
2022-10-05T21:53:37.965Z,12.10
2022-10-05T21:56:16.029Z,12.00
2022-10-05T21:58:50.079Z,11.80
2022-10-05T22:01:23.242Z,11.70
2022-10-05T22:04:01.746Z,11.60
2022-10-05T22:06:35.735Z,11.50
2022-10-05T22:09:09.129Z,11.38
2022-10-05T22:11:42.013Z,11.28
2022-10-05T22:14:17.258Z,11.18
2022-10-05T22:16:50.675Z,11.02
2022-10-05T22:19:24.051Z,11.00
2022-10-05T22:21:57.049Z,10.90
2022-10-05T22:24:30.023Z,10.80
2022-10-05T22:27:03.110Z,10.70
2022-10-05T22:29:36.279Z,10.70
2022-10-05T22:32:09.338Z,10.60
2022-10-05T22:34:42.887Z,10.60
2022-10-05T22:37:15.975Z,10.60
2022-10-05T22:39:49.510Z,10.70
2022-10-05T22:42:22.593Z,10.90
2022-10-05T22:44:55.588Z,11.00
2022-10-05T22:47:28.907Z,11.00
2022-10-05T22:50:02.146Z,11.04
2022-10-05T22:52:35.235Z,11.00
2022-10-05T22:55:10.444Z,11.00
2022-10-05T22:57:44.483Z,10.96
2022-10-05T23:00:19.402Z,10.90
2022-10-05T23:02:53.838Z,10.80
2022-10-05T23:05:26.872Z,10.70
2022-10-05T23:08:01.656Z,10.70
2022-10-05T23:10:34.675Z,10.70
2022-10-05T23:13:08.649Z,10.76
2022-10-05T23:15:42.572Z,10.80
2022-10-05T23:18:16.842Z,10.90
2022-10-05T23:20:55.809Z,10.90
2022-10-05T23:23:29.199Z,10.92
2022-10-05T23:26:05.541Z,11.00
2022-10-05T23:28:40.181Z,11.00
2022-10-05T23:31:14.254Z,11.10
2022-10-05T23:33:47.395Z,11.12
2022-10-05T23:36:22.867Z,11.10
2022-10-05T23:38:55.827Z,11.10
2022-10-05T23:41:29.331Z,11.02
2022-10-05T23:44:02.420Z,11.00
2022-10-05T23:46:35.509Z,10.90
2022-10-05T23:49:09.018Z,10.90
2022-10-05T23:51:42.479Z,10.90
2022-10-05T23:54:16.519Z,11.04
2022-10-05T23:56:49.602Z,11.20
2022-10-05T23:59:22.595Z,11.24
